Time;durP1;ratioP1;P1;durP2;ratioP2;P2;SDS_P1;SDS_P2;PMS_P1;PMS_P2;Temp;Humidity;BMP_temperature;BMP_pressure;BME280_temperature;BME280_humidity;BME280_pressure;Samples;Min_cycle;Max_cycle;Signal;HPM_P1;HPM_P2
2022/08/30 00:01:32;;;;;;;3.10;1.10;;;;;;;15.73;100.00;101612.75;5053827;28;20454;-68
2022/08/30 00:04:00;;;;;;;4.60;1.23;;;;;;;15.75;100.00;101620.63;5053316;28;20588;-68
2022/08/30 00:06:28;;;;;;;3.63;1.23;;;;;;;15.68;100.00;101614.81;5053560;28;20488;-69
2022/08/30 00:08:56;;;;;;;3.60;1.20;;;;;;;15.64;100.00;101614.59;5053569;28;20446;-68
2022/08/30 00:11:26;;;;;;;4.03;1.17;;;;;;;15.64;100.00;101609.94;5053546;28;20871;-70
2022/08/30 00:13:55;;;;;;;3.83;1.37;;;;;;;15.62;100.00;101612.13;5053421;28;20475;-70
2022/08/30 00:16:23;;;;;;;3.67;1.07;;;;;;;15.55;100.00;101616.44;5054830;28;20482;-70
2022/08/30 00:18:50;;;;;;;3.67;1.23;;;;;;;15.53;100.00;101618.66;5053293;28;20446;-70
2022/08/30 00:21:17;;;;;;;4.60;1.23;;;;;;;15.61;100.00;101620.66;5053279;28;20826;-70
2022/08/30 00:23:43;;;;;;;3.60;1.20;;;;;;;15.71;100.00;101619.63;5053335;28;20461;-70
2022/08/30 00:26:10;;;;;;;3.70;1.53;;;;;;;15.72;100.00;101616.59;5053313;28;20442;-70
2022/08/30 00:28:36;;;;;;;3.63;1.37;;;;;;;15.81;100.00;101622.94;5053466;28;20445;-70
2022/08/30 00:31:04;;;;;;;4.17;1.20;;;;;;;15.86;100.00;101622.81;5053222;28;20469;-70
2022/08/30 00:33:31;;;;;;;3.53;1.10;;;;;;;15.91;100.00;101626.53;5053174;28;20458;-70
2022/08/30 00:35:59;;;;;;;3.53;1.37;;;;;;;15.89;100.00;101624.91;5053148;28;20447;-70
2022/08/30 00:38:26;;;;;;;4.10;1.57;;;;;;;15.74;100.00;101622.53;5052870;28;20485;-68
2022/08/30 00:40:53;;;;;;;4.00;1.23;;;;;;;15.68;100.00;101626.53;5053338;28;20862;-70
2022/08/30 00:43:23;;;;;;;3.17;1.03;;;;;;;15.60;100.00;101619.03;5053143;28;20454;-69
2022/08/30 00:45:50;;;;;;;4.40;1.50;;;;;;;15.59;100.00;101622.91;5053233;28;20454;-69
2022/08/30 00:48:17;;;;;;;3.80;1.33;;;;;;;15.55;100.00;101616.44;5053073;28;20434;-70
2022/08/30 00:50:46;;;;;;;3.60;1.20;;;;;;;15.67;100.00;101618.63;5052757;28;20817;-69
2022/08/30 00:53:17;;;;;;;3.87;1.10;;;;;;;15.66;100.00;101620.56;5053425;28;20472;-70
2022/08/30 00:55:44;;;;;;;3.93;1.60;;;;;;;15.62;100.00;101619.53;5052932;28;20434;-69
2022/08/30 00:58:15;;;;;;;3.83;1.33;;;;;;;15.54;100.00;101623.03;5052677;28;20482;-69
2022/08/30 01:00:42;;;;;;;3.50;1.20;;;;;;;15.50;100.00;101624.75;5053250;28;20422;-69
2022/08/30 01:03:08;;;;;;;3.50;0.93;;;;;;;15.52;100.00;101633.44;5053187;28;20453;-69
2022/08/30 01:05:37;;;;;;;6.90;1.40;;;;;;;15.48;100.00;101626.97;5053065;28;20791;-69
2022/08/30 01:08:03;;;;;;;5.10;1.20;;;;;;;15.46;100.00;101626.47;5052878;28;20468;-70
2022/08/30 01:10:34;;;;;;;4.60;1.40;;;;;;;15.31;100.00;101633.88;5052902;28;20948;-70
2022/08/30 01:13:00;;;;;;;4.23;1.33;;;;;;;15.26;100.00;101634.00;5052993;28;20434;-69
2022/08/30 01:15:27;;;;;;;4.50;1.43;;;;;;;15.26;100.00;101634.00;5052696;28;20545;-70
2022/08/30 01:17:54;;;;;;;3.30;0.90;;;;;;;15.31;100.00;101633.06;5052793;28;20486;-70
2022/08/30 01:20:26;;;;;;;4.83;1.13;;;;;;;15.34;100.00;101632.47;5054409;28;20438;-70
2022/08/30 01:23:04;;;;;;;3.93;1.17;;;;;;;15.28;100.00;101634.50;5056754;28;20426;-70
2022/08/30 01:25:30;;;;;;;3.20;0.90;;;;;;;15.30;100.00;101637.72;5056500;28;20469;-70
2022/08/30 01:28:00;;;;;;;3.93;1.43;;;;;;;15.24;100.00;101640.91;5056637;28;20446;-70
2022/08/30 01:30:27;;;;;;;3.37;1.17;;;;;;;15.29;100.00;101632.59;5056825;28;20442;-69
2022/08/30 01:32:58;;;;;;;3.60;1.33;;;;;;;15.31;100.00;101635.81;5056640;28;20461;-69
2022/08/30 01:35:25;;;;;;;3.50;1.10;;;;;;;15.22;100.00;101635.72;5056177;28;20979;-70
2022/08/30 01:37:51;;;;;;;5.60;1.77;;;;;;;15.27;100.00;101637.53;5056471;28;20489;-69
2022/08/30 01:40:19;;;;;;;3.17;1.00;;;;;;;15.26;100.00;101644.91;5056463;28;20453;-69
2022/08/30 01:42:46;;;;;;;6.50;1.30;;;;;;;15.29;100.00;101641.59;5055970;28;20441;-69
2022/08/30 01:45:13;;;;;;;3.70;1.13;;;;;;;15.23;100.00;101637.34;5055979;28;20967;-70
2022/08/30 01:47:39;;;;;;;3.63;1.60;;;;;;;15.25;100.00;101637.03;5056400;28;20450;-69
2022/08/30 01:50:08;;;;;;;5.00;1.50;;;;;;;15.20;100.00;101637.97;5056193;28;20439;-69
2022/08/30 01:52:34;;;;;;;3.83;1.27;;;;;;;15.17;100.00;101635.03;5056093;28;20961;-70
2022/08/30 01:55:01;;;;;;;4.30;1.10;;;;;;;15.21;100.00;101636.84;5055683;28;20466;-69
2022/08/30 01:57:29;;;;;;;4.17;1.10;;;;;;;15.25;100.00;101635.13;5055966;28;20828;-68
2022/08/30 01:59:56;;;;;;;4.67;1.90;;;;;;;15.23;100.00;101631.06;5055750;28;20809;-68
2022/08/30 02:02:26;;;;;;;3.60;1.20;;;;;;;15.21;100.00;101636.84;5055791;28;20951;-70
2022/08/30 02:04:54;;;;;;;3.83;1.53;;;;;;;15.24;100.00;101633.50;5056535;28;20451;-70
2022/08/30 02:07:21;;;;;;;3.60;1.40;;;;;;;15.28;100.00;101642.69;5056015;28;20449;-69
2022/08/30 02:09:48;;;;;;;5.50;1.80;;;;;;;15.29;100.00;101638.84;5055719;28;20455;-69
2022/08/30 02:12:14;;;;;;;3.60;1.40;;;;;;;15.33;100.00;101637.13;5055593;28;20442;-70
2022/08/30 02:14:42;;;;;;;3.80;1.50;;;;;;;15.37;100.00;101638.13;5055354;28;20903;-69
2022/08/30 02:17:11;;;;;;;4.70;2.03;;;;;;;15.38;100.00;101630.75;5055777;28;20486;-69
2022/08/30 02:19:38;;;;;;;4.40;1.87;;;;;;;15.49;100.00;101634.03;5055482;28;20931;-69
2022/08/30 02:22:05;;;;;;;4.80;1.80;;;;;;;15.51;100.00;101626.34;5055650;28;20438;-69
2022/08/30 02:24:32;;;;;;;4.77;1.80;;;;;;;15.54;100.00;101628.47;5055525;28;20454;-69
2022/08/30 02:26:58;;;;;;;5.40;1.90;;;;;;;15.49;100.00;101628.56;5055293;28;20434;-69
2022/08/30 02:29:25;;;;;;;3.60;1.40;;;;;;;15.44;100.00;101629.50;5055642;28;20450;-69
2022/08/30 02:31:53;;;;;;;3.80;1.67;;;;;;;15.37;100.00;101624.47;5054317;28;20446;-69
2022/08/30 02:34:19;;;;;;;3.70;1.60;;;;;;;15.33;100.00;101619.94;5055595;28;20477;-68
2022/08/30 02:36:46;;;;;;;5.80;2.43;;;;;;;15.27;100.00;101613.78;5055649;28;20442;-70
2022/08/30 02:39:14;;;;;;;4.50;1.73;;;;;;;15.19;100.00;101614.53;5055301;28;20446;-69
2022/08/30 02:41:42;;;;;;;4.80;2.00;;;;;;;15.19;100.00;101613.72;5055311;28;20441;-69
2022/08/30 02:44:09;;;;;;;5.03;2.37;;;;;;;15.17;100.00;101616.72;5054877;28;20466;-69
2022/08/30 02:46:36;;;;;;;5.00;2.20;;;;;;;15.18;100.00;101618.34;5055221;28;20806;-69
2022/08/30 02:49:07;;;;;;;4.90;1.77;;;;;;;15.07;100.00;101619.69;5055227;28;20442;-69
2022/08/30 02:51:34;;;;;;;11.30;1.80;;;;;;;15.14;100.00;101620.91;5055224;28;20431;-69
2022/08/30 02:54:00;;;;;;;4.83;1.60;;;;;;;15.10;100.00;101621.81;5054931;28;21001;-69
2022/08/30 02:56:27;;;;;;;3.73;1.57;;;;;;;15.05;100.00;101621.91;5055090;28;20438;-69
2022/08/30 02:58:54;;;;;;;5.50;2.37;;;;;;;14.93;100.00;101616.19;5055014;28;20540;-69
2022/08/30 03:01:20;;;;;;;6.43;2.10;;;;;;;14.87;100.00;101615.47;5054914;28;20450;-69
2022/08/30 03:03:47;;;;;;;4.70;1.83;;;;;;;14.84;100.00;101619.63;5054810;28;20466;-68
2022/08/30 03:06:15;;;;;;;5.43;2.23;;;;;;;14.83;100.00;101612.56;5054603;28;21009;-69
2022/08/30 03:08:42;;;;;;;4.93;2.07;;;;;;;14.73;100.00;101611.94;5054776;28;20449;-69
2022/08/30 03:11:09;;;;;;;5.03;2.10;;;;;;;14.69;100.00;101617.19;5054384;28;20805;-68
2022/08/30 03:13:35;;;;;;;7.47;2.70;;;;;;;14.70;100.00;101613.38;5054616;28;20474;-68
2022/08/30 03:16:02;;;;;;;10.17;3.00;;;;;;;14.76;100.00;101611.34;5054745;28;20488;-69
2022/08/30 03:18:28;;;;;;;6.10;2.60;;;;;;;14.72;100.00;101615.78;5054554;28;20489;-69
2022/08/30 03:20:55;;;;;;;5.30;1.93;;;;;;;14.68;100.00;101612.03;5054480;28;20492;-69
2022/08/30 03:23:24;;;;;;;6.03;2.60;;;;;;;14.67;100.00;101618.63;5054197;28;20944;-69
2022/08/30 03:25:52;;;;;;;10.83;2.70;;;;;;;14.76;100.00;101616.78;5054485;28;20453;-69
2022/08/30 03:28:18;;;;;;;7.17;2.77;;;;;;;14.74;100.00;101613.53;5054330;28;20534;-69
2022/08/30 03:30:46;;;;;;;12.17;2.90;;;;;;;14.68;100.00;101623.75;5054374;28;20499;-69
2022/08/30 03:33:12;;;;;;;6.07;1.77;;;;;;;14.70;100.00;101615.25;5054576;28;20446;-70
2022/08/30 03:35:39;;;;;;;3.90;1.40;;;;;;;14.70;100.00;101621.53;5054512;28;20449;-69
2022/08/30 03:38:06;;;;;;;5.83;1.77;;;;;;;14.70;100.00;101621.53;5054045;28;20478;-69
2022/08/30 03:40:34;;;;;;;4.80;2.00;;;;;;;14.74;100.00;101624.44;5054130;28;20452;-69
2022/08/30 03:43:01;;;;;;;6.23;2.40;;;;;;;14.64;100.00;101628.19;5053798;28;20435;-68
2022/08/30 03:45:27;;;;;;;5.80;2.43;;;;;;;14.71;100.00;101636.78;5053952;28;20470;-69
2022/08/30 03:47:54;;;;;;;3.90;1.70;;;;;;;14.72;100.00;101637.59;5053901;28;20962;-69
2022/08/30 03:50:20;;;;;;;5.67;1.87;;;;;;;14.76;100.00;101641.34;5054175;28;20450;-68
2022/08/30 03:52:47;;;;;;;5.60;2.00;;;;;;;14.73;100.00;101634.56;5054003;28;20445;-69
2022/08/30 03:55:14;;;;;;;4.33;2.10;;;;;;;14.76;100.00;101631.22;5053692;28;20466;-69
2022/08/30 03:57:42;;;;;;;5.27;1.77;;;;;;;14.85;100.00;101647.69;5053829;28;20512;-69
2022/08/30 04:00:10;;;;;;;4.30;1.77;;;;;;;14.80;100.00;101643.16;5053862;28;20488;-68
2022/08/30 04:02:37;;;;;;;5.43;2.23;;;;;;;14.74;100.00;101641.66;5054084;28;20434;-69
2022/08/30 04:05:04;;;;;;;4.57;1.87;;;;;;;14.79;100.00;101640.75;5053689;28;20478;-69
2022/08/30 04:07:31;;;;;;;7.53;1.83;;;;;;;14.82;100.00;101640.91;5053701;28;20438;-69
2022/08/30 04:09:57;;;;;;;4.30;1.70;;;;;;;14.82;100.00;101640.91;5053919;28;20442;-70
2022/08/30 04:12:24;;;;;;;4.50;1.67;;;;;;;14.85;100.00;101647.69;5053381;28;20446;-69
2022/08/30 04:14:52;;;;;;;4.57;1.70;;;;;;;14.84;100.00;101641.44;5053487;28;20475;-69
2022/08/30 04:17:19;;;;;;;4.30;2.07;;;;;;;14.72;100.00;101641.13;5053532;28;20446;-69
2022/08/30 04:19:45;;;;;;;4.80;1.73;;;;;;;14.77;100.00;101645.69;5053825;28;20816;-70
2022/08/30 04:22:12;;;;;;;4.30;1.57;;;;;;;14.79;100.00;101643.47;5053788;28;20445;-70
2022/08/30 04:24:40;;;;;;;5.40;2.17;;;;;;;14.74;100.00;101644.38;5053552;28;20474;-70
2022/08/30 04:27:07;;;;;;;4.20;1.93;;;;;;;14.71;100.00;101642.25;5053425;28;20442;-70
2022/08/30 04:29:33;;;;;;;5.97;2.10;;;;;;;14.71;100.00;101647.69;5053571;28;20449;-70
2022/08/30 04:32:01;;;;;;;5.03;2.00;;;;;;;14.74;100.00;101644.38;5053543;28;20442;-70
2022/08/30 04:34:28;;;;;;;4.70;2.00;;;;;;;14.79;100.00;101657.09;5053427;28;20492;-70
2022/08/30 04:36:55;;;;;;;4.40;1.70;;;;;;;14.76;100.00;101644.06;5053313;28;20485;-70
2022/08/30 04:39:21;;;;;;;4.20;1.60;;;;;;;14.64;100.00;101652.72;5053188;28;20847;-69
2022/08/30 04:41:47;;;;;;;4.37;1.80;;;;;;;14.66;100.00;101653.25;5053304;28;20453;-70
2022/08/30 04:44:14;;;;;;;4.70;1.67;;;;;;;14.59;100.00;101658.28;5053029;28;20830;-70
2022/08/30 04:46:41;;;;;;;4.80;2.30;;;;;;;14.58;100.00;101656.69;5053249;28;20441;-70
2022/08/30 04:49:09;;;;;;;4.30;1.33;;;;;;;14.61;100.00;101651.44;5053064;28;20858;-70
2022/08/30 04:51:35;;;;;;;4.77;2.10;;;;;;;14.58;100.00;101660.22;5052965;28;20438;-69
2022/08/30 04:54:02;;;;;;;5.07;1.50;;;;;;;14.48;100.00;101659.56;5053021;28;20465;-69
2022/08/30 04:56:28;;;;;;;4.73;2.10;;;;;;;14.54;100.00;101652.94;5056284;28;20452;-70
2022/08/30 04:58:55;;;;;;;4.70;1.87;;;;;;;14.54;100.00;101655.66;5056980;28;20492;-69
2022/08/30 05:01:25;;;;;;;7.43;1.77;;;;;;;14.57;100.00;101666.78;5057085;28;20545;-69
2022/08/30 05:03:52;;;;;;;4.40;1.97;;;;;;;14.59;100.00;101667.28;5057040;28;20465;-69
2022/08/30 05:06:21;;;;;;;5.60;1.70;;;;;;;14.53;100.00;101668.50;5056689;28;20449;-69
2022/08/30 05:08:47;;;;;;;4.90;1.90;;;;;;;14.55;100.00;101663.53;5056847;28;20449;-69
2022/08/30 05:11:16;;;;;;;5.00;2.13;;;;;;;14.59;100.00;101659.09;5056578;28;20939;-70
2022/08/30 05:13:43;;;;;;;4.60;2.33;;;;;;;14.62;100.00;101663.16;5056391;28;20480;-69
2022/08/30 05:16:09;;;;;;;5.43;1.83;;;;;;;14.65;100.00;101665.25;5056788;28;20441;-69
2022/08/30 05:18:37;;;;;;;5.33;2.13;;;;;;;14.61;100.00;101667.00;5056513;28;20496;-69
2022/08/30 05:21:06;;;;;;;3.93;1.63;;;;;;;14.53;100.00;101671.22;5056790;28;20429;-70
2022/08/30 05:23:34;;;;;;;4.00;1.73;;;;;;;14.59;100.00;101672.72;5056658;28;20839;-70
2022/08/30 05:26:05;;;;;;;14.33;2.47;;;;;;;14.69;100.00;101674.44;5056539;28;20837;-69
2022/08/30 05:28:31;;;;;;;5.47;1.83;;;;;;;14.71;100.00;101680.44;5056701;28;20433;-69
2022/08/30 05:30:58;;;;;;;6.10;1.83;;;;;;;14.71;100.00;101685.09;5056419;28;20453;-68
2022/08/30 05:33:24;;;;;;;3.70;1.83;;;;;;;14.77;100.00;101679.22;5056655;28;20442;-70
2022/08/30 05:35:51;;;;;;;3.57;1.47;;;;;;;14.95;100.00;101685.69;5056492;28;20442;-69
2022/08/30 05:38:17;;;;;;;5.43;2.30;;;;;;;15.00;100.00;101687.50;5056318;28;20493;-69
2022/08/30 05:40:45;;;;;;;4.87;1.97;;;;;;;15.01;100.00;101680.94;5056123;28;20450;-68
2022/08/30 05:43:13;;;;;;;5.73;2.30;;;;;;;15.14;100.00;101688.31;5056200;28;20446;-69
2022/08/30 05:45:39;;;;;;;5.17;2.23;;;;;;;15.19;100.00;101688.22;5056441;28;20444;-70
2022/08/30 05:48:06;;;;;;;4.23;1.93;;;;;;;15.37;100.00;101691.94;5056220;28;20460;-68
2022/08/30 05:50:33;;;;;;;4.53;1.90;;;;;;;15.41;100.00;101687.47;5055796;28;20454;-69
2022/08/30 05:52:59;;;;;;;5.43;2.40;;;;;;;15.50;100.00;101687.56;5056254;28;20442;-69
2022/08/30 05:55:25;;;;;;;6.07;2.70;;;;;;;15.64;100.00;101696.56;5055697;28;20982;-69
2022/08/30 05:57:53;;;;;;;4.90;2.00;;;;;;;15.73;100.00;101693.91;5056012;28;20446;-69
2022/08/30 06:00:20;;;;;;;6.07;2.50;;;;;;;15.87;100.00;101689.19;5056065;28;20446;-70
2022/08/30 06:02:46;;;;;;;5.27;2.70;;;;;;;15.96;100.00;101691.97;5056141;28;20442;-68
2022/08/30 06:05:13;;;;;;;7.50;2.50;;;;;;;16.04;100.00;101699.44;5055950;28;20470;-69
2022/08/30 06:07:39;;;;;;;5.57;1.97;;;;;;;16.11;100.00;101700.63;5055529;28;20457;-69
2022/08/30 06:10:06;;;;;;;5.10;2.20;;;;;;;16.15;100.00;101703.53;5055379;28;20816;-68
2022/08/30 06:12:33;;;;;;;5.70;2.20;;;;;;;16.17;100.00;101700.50;5055322;28;20446;-68
2022/08/30 06:15:00;;;;;;;6.07;2.30;;;;;;;16.23;100.00;101699.25;5055364;28;20469;-69
2022/08/30 06:17:27;;;;;;;12.50;2.63;;;;;;;16.30;100.00;101702.34;5079894;22;20510;-74
2022/08/30 06:19:53;;;;;;;7.27;3.00;;;;;;;16.38;100.00;101702.41;5055598;28;20481;-71
2022/08/30 06:22:20;;;;;;;6.63;2.77;;;;;;;16.47;100.00;101705.19;5055354;28;20961;-71
2022/08/30 06:24:46;;;;;;;5.90;2.33;;;;;;;16.47;100.00;101701.63;5055277;28;20435;-71
2022/08/30 06:27:14;;;;;;;6.40;2.70;;;;;;;16.57;100.00;101701.38;5055461;28;20462;-72
2022/08/30 06:29:40;;;;;;;5.27;2.30;;;;;;;16.57;100.00;101706.84;5055110;28;20977;-72
2022/08/30 06:32:08;;;;;;;13.40;2.70;;;;;;;16.65;100.00;101712.38;5055080;28;20442;-71
2022/08/30 06:34:34;;;;;;;5.20;2.50;;;;;;;16.69;100.00;101706.25;5055057;28;20438;-72
2022/08/30 06:37:01;;;;;;;6.20;2.60;;;;;;;16.76;100.00;101714.84;5054916;28;20979;-73
2022/08/30 06:39:28;;;;;;;7.17;2.80;;;;;;;16.78;100.00;101709.91;5055221;28;20485;-73
2022/08/30 06:41:54;;;;;;;5.80;1.93;;;;;;;16.84;100.00;101716.84;5055305;28;20450;-73
2022/08/30 06:44:21;;;;;;;6.60;3.10;;;;;;;16.92;100.00;101723.47;5055236;28;20882;-73
2022/08/30 06:46:47;;;;;;;6.40;2.93;;;;;;;16.97;100.00;101720.59;5055166;28;20584;-73
2022/08/30 06:49:16;;;;;;;5.27;2.30;;;;;;;17.05;100.00;101725.28;5055165;28;20442;-73
2022/08/30 06:51:42;;;;;;;4.67;2.20;;;;;;;17.18;100.00;101727.09;5054798;28;20970;-74
2022/08/30 06:54:10;;;;;;;6.13;2.97;;;;;;;17.23;100.00;101728.91;5055162;28;20442;-74
2022/08/30 06:56:36;;;;;;;5.73;2.67;;;;;;;17.25;100.00;101727.44;5054688;28;20987;-75
2022/08/30 06:59:03;;;;;;;6.60;2.50;;;;;;;17.27;100.00;101724.41;5054812;28;20482;-75
2022/08/30 07:01:30;;;;;;;5.70;2.47;;;;;;;17.33;100.00;101723.91;5054846;28;20438;-75
2022/08/30 07:03:57;;;;;;;5.53;2.40;;;;;;;17.44;100.00;101723.59;5054607;28;20474;-74
2022/08/30 07:06:28;;;;;;;5.63;2.50;;;;;;;17.52;100.00;101726.38;5054646;28;20446;-75
2022/08/30 07:08:55;;;;;;;7.13;3.00;;;;;;;17.66;100.00;101723.47;5054412;28;20423;-74
2022/08/30 07:11:26;;;;;;;5.20;2.33;;;;;;;17.83;100.00;101722.72;5054651;28;20824;-74
2022/08/30 07:13:53;;;;;;;6.67;3.17;;;;;;;17.97;100.00;101728.03;5054439;28;20434;-74
2022/08/30 07:16:19;;;;;;;5.40;2.27;;;;;;;18.11;100.00;101739.66;5054339;28;20453;-74
2022/08/30 07:18:53;;;;;;;7.03;3.23;;;;;;;18.27;100.00;101727.03;5053872;28;20482;-76
2022/08/30 07:21:23;;;;;;;5.40;2.83;;;;;;;18.41;100.00;101724.09;5054663;28;20438;-73
2022/08/30 07:23:51;;;;;;;4.10;1.80;;;;;;;18.50;100.00;101732.31;5054490;28;20438;-73
2022/08/30 07:26:20;;;;;;;5.30;2.57;;;;;;;18.59;100.00;101731.19;5054051;28;20943;-74
2022/08/30 07:28:47;;;;;;;5.47;2.57;;;;;;;18.70;100.00;101730.88;5054332;28;20552;-73
2022/08/30 07:31:16;;;;;;;5.43;2.17;;;;;;;18.83;100.00;101738.09;5054099;28;20947;-74
2022/08/30 07:33:43;;;;;;;5.10;2.00;;;;;;;18.92;100.00;101732.56;5054270;28;20446;-74
2022/08/30 07:36:10;;;;;;;7.10;2.30;;;;;;;19.01;100.00;101731.38;5054201;28;20446;-74
2022/08/30 07:38:37;;;;;;;6.20;2.50;;;;;;;19.10;100.00;101739.59;5053661;28;20815;-74
2022/08/30 07:41:06;;;;;;;4.97;1.83;;;;;;;19.12;100.00;101742.78;5054310;28;20787;-75
2022/08/30 07:43:33;;;;;;;5.13;2.13;;;;;;;19.20;100.00;101744.69;5054263;28;20442;-74
2022/08/30 07:46:01;;;;;;;4.97;2.17;;;;;;;19.30;100.00;101746.25;5054125;28;20521;-74
2022/08/30 07:48:27;;;;;;;5.33;2.30;;;;;;;19.26;100.00;101754.38;5054016;28;20470;-74
2022/08/30 07:50:54;;;;;;;6.53;2.93;;;;;;;19.27;100.00;101750.50;5054047;28;20447;-74
2022/08/30 07:53:20;;;;;;;5.80;2.83;;;;;;;19.24;100.00;101762.13;5053532;28;20443;-74
2022/08/30 07:55:47;;;;;;;5.43;2.70;;;;;;;19.14;100.00;101762.50;5053785;28;20438;-74
2022/08/30 07:58:15;;;;;;;9.37;3.70;;;;;;;19.15;100.00;101753.94;5053444;28;20843;-74
2022/08/30 08:00:41;;;;;;;5.83;2.40;;;;;;;19.12;99.59;101760.09;5053683;28;20486;-75
2022/08/30 08:03:09;;;;;;;6.03;3.00;;;;;;;19.11;100.00;101763.16;5053286;28;20928;-74
2022/08/30 08:05:40;;;;;;;5.87;2.93;;;;;;;19.11;100.00;101757.66;5053350;28;20446;-75
2022/08/30 08:08:07;;;;;;;6.20;2.80;;;;;;;19.03;100.00;101759.31;5053366;28;20983;-76
2022/08/30 08:10:33;;;;;;;8.03;2.57;;;;;;;19.10;100.00;101756.06;5053675;28;20446;-75
2022/08/30 08:13:00;;;;;;;4.93;2.60;;;;;;;19.10;99.52;101762.34;5053526;28;20442;-75
2022/08/30 08:15:28;;;;;;;5.70;2.60;;;;;;;19.24;99.70;101762.13;5053547;28;20492;-75
2022/08/30 08:17:55;;;;;;;4.60;1.97;;;;;;;19.31;99.85;101756.94;5053126;28;20474;-75
2022/08/30 08:20:22;;;;;;;7.73;3.23;;;;;;;19.47;98.68;101759.91;5053440;28;20485;-75
2022/08/30 08:22:49;;;;;;;5.10;2.77;;;;;;;19.62;98.40;101764.06;5053179;28;20457;-74
2022/08/30 08:25:15;;;;;;;7.60;3.17;;;;;;;19.76;97.71;101767.34;5053392;28;20439;-74
2022/08/30 08:27:42;;;;;;;6.63;3.20;;;;;;;19.87;96.68;101762.25;5053586;28;20450;-73
2022/08/30 08:30:10;;;;;;;4.67;2.40;;;;;;;20.05;96.46;101771.97;5052190;28;21000;-73
2022/08/30 08:32:37;;;;;;;6.10;3.07;;;;;;;20.24;95.42;101777.00;5053026;28;20915;-73
2022/08/30 08:35:04;;;;;;;7.37;2.70;;;;;;;20.33;94.47;101779.69;5053319;28;20438;-74
2022/08/30 08:37:31;;;;;;;5.93;2.63;;;;;;;20.29;93.08;101790.53;5053267;28;20462;-74
2022/08/30 08:39:57;;;;;;;3.97;1.63;;;;;;;20.33;92.21;101791.47;5053199;28;20493;-74
2022/08/30 08:42:36;;;;;;;5.87;1.80;;;;;;;20.26;91.59;101799.47;5053352;28;20434;-73
2022/08/30 08:45:07;;;;;;;4.70;1.77;;;;;;;20.12;92.39;101787.94;5053296;28;20430;-73
2022/08/30 08:47:41;;;;;;;3.67;1.50;;;;;;;20.22;92.49;101798.53;5053099;28;20466;-75
2022/08/30 08:50:11;;;;;;;3.90;1.53;;;;;;;20.29;93.23;101793.31;5053216;28;20441;-75
2022/08/30 08:55:34;;;;;;;3.10;0.80;;;;;;;20.40;92.01;101791.72;5053086;28;20452;-74
2022/08/30 08:58:01;;;;;;;4.07;1.13;;;;;;;20.39;91.30;101797.56;5052980;28;20462;-75
2022/08/30 09:00:28;;;;;;;3.23;0.90;;;;;;;20.32;91.79;101800.88;5053848;28;20478;-75
2022/08/30 09:02:59;;;;;;;2.90;0.70;;;;;;;20.19;91.11;101795.63;5052815;28;20454;-74
2022/08/30 09:05:31;;;;;;;3.10;0.97;;;;;;;20.24;91.32;101799.00;5052954;28;20426;-76
2022/08/30 09:08:01;;;;;;;3.00;0.80;;;;;;;20.19;90.78;101799.22;5052971;28;20470;-76
2022/08/30 09:10:29;;;;;;;3.20;0.80;;;;;;;20.17;91.10;101798.75;5052990;28;20434;-76
2022/08/30 09:12:56;;;;;;;2.77;0.60;;;;;;;20.15;90.18;101806.53;5052937;28;20807;-75
2022/08/30 09:15:26;;;;;;;3.80;0.93;;;;;;;20.14;90.56;101799.41;5053089;28;20504;-75
2022/08/30 09:17:56;;;;;;;4.13;0.70;;;;;;;20.08;90.22;101800.75;5052575;28;20485;-75
2022/08/30 09:20:27;;;;;;;3.77;0.80;;;;;;;20.07;90.19;101804.66;5052839;28;20489;-74
2022/08/30 09:22:54;;;;;;;2.80;0.60;;;;;;;19.98;90.70;101803.91;5053267;28;20442;-74
2022/08/30 09:25:23;;;;;;;4.00;0.60;;;;;;;19.98;90.66;101801.97;5052899;28;20434;-76
2022/08/30 09:27:51;;;;;;;4.17;0.90;;;;;;;19.81;90.35;101805.66;5052938;28;20462;-74
2022/08/30 09:30:20;;;;;;;4.20;0.87;;;;;;;19.79;91.32;101807.09;5052971;28;20450;-74
2022/08/30 09:32:52;;;;;;;2.77;0.57;;;;;;;19.74;91.80;101802.59;5052611;28;20445;-75
2022/08/30 09:35:21;;;;;;;2.93;0.63;;;;;;;19.65;93.08;101801.84;5052945;28;20437;-75
2022/08/30 09:37:55;;;;;;;3.27;1.03;;;;;;;19.64;92.46;101800.25;5053341;28;20465;-75
2022/08/30 09:40:26;;;;;;;2.87;0.63;;;;;;;19.63;92.45;101807.69;5052688;28;21017;-75
2022/08/30 09:43:07;;;;;;;4.50;1.07;;;;;;;19.64;93.36;101811.25;5056192;28;20907;-75
2022/08/30 09:45:36;;;;;;;2.80;0.70;;;;;;;19.72;93.05;101809.59;5056332;28;20429;-75
2022/08/30 09:48:28;;;;;;;2.97;0.73;;;;;;;19.76;92.35;101813.28;5056180;28;20454;-76
2022/08/30 09:51:08;;;;;;;3.73;0.83;;;;;;;19.70;92.50;101809.94;5057662;28;20492;-75
2022/08/30 09:53:39;;;;;;;2.90;0.80;;;;;;;19.77;92.36;101812.16;5056240;28;20426;-76
2022/08/30 09:56:08;;;;;;;3.30;0.87;;;;;;;19.83;91.02;101811.63;5056250;28;20477;-76
2022/08/30 09:58:57;;;;;;;2.80;0.80;;;;;;;19.90;91.41;101808.34;5056664;28;20466;-75
2022/08/30 10:01:29;;;;;;;3.13;0.70;;;;;;;19.96;88.95;101806.19;5056146;28;20458;-75
2022/08/30 10:04:01;;;;;;;2.70;0.53;;;;;;;19.96;89.27;101800.69;5056143;28;20430;-75
2022/08/30 10:06:33;;;;;;;2.90;0.80;;;;;;;20.06;90.04;101803.06;5056530;28;20799;-76
2022/08/30 10:09:13;;;;;;;2.87;0.60;;;;;;;20.14;88.67;101802.16;5057241;28;20431;-72
2022/08/30 10:11:46;;;;;;;2.80;0.70;;;;;;;20.03;87.07;101793.50;5056175;28;20422;-76
2022/08/30 10:14:33;;;;;;;2.80;0.60;;;;;;;20.13;87.92;101803.31;5055794;28;20841;-76
2022/08/30 10:17:06;;;;;;;3.03;0.70;;;;;;;20.17;87.39;101805.03;5055494;28;20474;-76
2022/08/30 10:19:57;;;;;;;2.87;0.70;;;;;;;20.21;86.11;101793.38;5055356;28;21034;-75
2022/08/30 10:22:30;;;;;;;3.20;0.80;;;;;;;20.42;86.48;101797.72;5055368;28;20928;-75
2022/08/30 10:25:05;;;;;;;3.00;0.60;;;;;;;20.58;84.97;101797.91;5055781;28;20415;-76
2022/08/30 10:27:36;;;;;;;2.73;0.43;;;;;;;20.71;82.43;101793.22;5055550;28;20462;-75
2022/08/30 10:30:06;;;;;;;2.80;0.60;;;;;;;20.89;82.81;101797.44;5055566;28;20801;-75
2022/08/30 10:32:37;;;;;;;3.47;0.67;;;;;;;21.10;80.92;101793.78;5055159;28;20445;-75
2022/08/30 10:35:08;;;;;;;2.90;0.60;;;;;;;21.31;80.09;101789.00;5055406;28;20438;-74
2022/08/30 10:37:39;;;;;;;3.10;0.80;;;;;;;21.46;78.14;101789.44;5055309;28;20469;-73
2022/08/30 10:43:03;;;;;;;4.20;0.80;;;;;;;21.87;76.10;101785.59;5055013;28;20410;-74
2022/08/30 10:45:32;;;;;;;3.30;0.80;;;;;;;22.05;73.98;101788.88;5055115;28;20437;-74
2022/08/30 10:48:07;;;;;;;2.70;0.60;;;;;;;22.06;73.02;101782.22;5055308;28;20493;-74
2022/08/30 10:50:38;;;;;;;5.90;0.80;;;;;;;22.14;70.33;101790.38;5054878;28;20907;-73
2022/08/30 10:53:11;;;;;;;3.10;0.77;;;;;;;22.17;69.71;101780.56;5054143;28;20435;-72
2022/08/30 10:55:48;;;;;;;3.00;0.70;;;;;;;22.27;72.14;101774.56;5055157;28;20440;-72
2022/08/30 10:58:15;;;;;;;3.67;0.83;;;;;;;22.50;71.55;101780.34;5054581;28;20462;-72
2022/08/30 11:00:52;;;;;;;3.03;0.80;;;;;;;22.62;70.67;101777.50;5054755;28;20489;-73
2022/08/30 11:03:45;;;;;;;6.40;1.43;;;;;;;22.83;70.54;101771.72;5055061;28;20831;-71
2022/08/30 11:06:20;;;;;;;3.33;1.07;;;;;;;22.86;69.93;101770.22;5055065;28;20430;-71
2022/08/30 11:09:03;;;;;;;2.80;0.70;;;;;;;22.92;68.41;101769.63;5054413;28;20857;-73
2022/08/30 11:11:43;;;;;;;2.60;0.50;;;;;;;22.66;66.91;101772.06;5054623;28;20423;-73
2022/08/30 11:14:14;;;;;;;2.70;0.50;;;;;;;22.62;67.51;101773.91;5054725;28;20427;-73
2022/08/30 11:16:43;;;;;;;4.10;0.67;;;;;;;22.59;69.96;101774.66;5054149;28;20482;-73
2022/08/30 11:19:16;;;;;;;3.50;0.73;;;;;;;22.61;68.66;101775.88;5054809;28;20435;-73
2022/08/30 11:21:43;;;;;;;3.00;0.60;;;;;;;22.76;68.99;101760.50;5054516;28;20524;-73
2022/08/30 11:24:12;;;;;;;3.20;0.63;;;;;;;22.74;69.65;101762.81;5054469;28;20453;-73
2022/08/30 11:27:10;;;;;;;3.20;0.70;;;;;;;22.87;69.68;101761.56;5054444;28;20462;-73
2022/08/30 11:29:42;;;;;;;3.00;0.77;;;;;;;22.97;70.61;101768.53;5021679;28;20553;-72
2022/08/30 11:32:59;;;;;;;2.70;0.57;;;;;;;23.14;71.79;101762.66;5059164;28;20449;-73